Terminal Aerodrome Forecast
Issued by NWS Buffalo, NY

Home | Current Version | Previous Version | Text Only | Print | Product List | Glossary On
Versions: 1 2 3 4 5 6 7 8 9 10 11 12 13 14 15 16 17 18 19 20 21 22 23 24 25
000
FTUS41 KBUF 302100 AAA
TAFROC
TAF AMD
KROC 302116Z 3021/3118 20012KT P6SM SCT100
     FM310200 20008KT P6SM BKN100
     FM310500 19011KT P6SM VCSH OVC040
     FM310800 21008KT 5SM -SHRA BR OVC040
     FM311500 24010KT P6SM VCSH BKN040=

USA.gov is the U.S. government's official web portal to all federal, state and local government web resources and services.